sensor_id;sensor_type;location;lat;lon;timestamp;P1;durP1;ratioP1;P2;durP2;ratioP2
24034;SDS011;12242;50.952;4.678;2022-08-19T00:02:14;10.85;;;7.22;;
24034;SDS011;12242;50.952;4.678;2022-08-19T00:04:42;12.70;;;7.45;;
24034;SDS011;12242;50.952;4.678;2022-08-19T00:07:11;10.55;;;6.70;;
24034;SDS011;12242;50.952;4.678;2022-08-19T00:09:41;12.13;;;7.63;;
24034;SDS011;12242;50.952;4.678;2022-08-19T00:12:14;11.35;;;7.60;;
24034;SDS011;12242;50.952;4.678;2022-08-19T00:14:43;11.73;;;7.07;;
24034;SDS011;12242;50.952;4.678;2022-08-19T00:17:13;10.88;;;6.68;;
24034;SDS011;12242;50.952;4.678;2022-08-19T00:19:41;12.05;;;7.45;;
24034;SDS011;12242;50.952;4.678;2022-08-19T00:22:09;11.10;;;7.10;;
24034;SDS011;12242;50.952;4.678;2022-08-19T00:24:36;14.73;;;7.60;;
24034;SDS011;12242;50.952;4.678;2022-08-19T00:27:05;14.85;;;7.65;;
24034;SDS011;12242;50.952;4.678;2022-08-19T00:29:52;11.27;;;7.53;;
24034;SDS011;12242;50.952;4.678;2022-08-19T00:32:19;11.90;;;7.25;;
24034;SDS011;12242;50.952;4.678;2022-08-19T00:34:56;13.57;;;7.90;;
24034;SDS011;12242;50.952;4.678;2022-08-19T00:37:26;12.57;;;7.03;;
24034;SDS011;12242;50.952;4.678;2022-08-19T00:39:54;13.90;;;7.50;;
24034;SDS011;12242;50.952;4.678;2022-08-19T00:42:24;11.95;;;7.45;;
24034;SDS011;12242;50.952;4.678;2022-08-19T00:44:55;12.55;;;7.70;;
24034;SDS011;12242;50.952;4.678;2022-08-19T00:47:22;14.93;;;8.38;;
24034;SDS011;12242;50.952;4.678;2022-08-19T00:49:52;13.13;;;8.63;;
24034;SDS011;12242;50.952;4.678;2022-08-19T00:52:35;19.40;;;9.73;;
24034;SDS011;12242;50.952;4.678;2022-08-19T00:55:07;14.63;;;9.00;;
24034;SDS011;12242;50.952;4.678;2022-08-19T00:57:40;18.65;;;9.32;;
24034;SDS011;12242;50.952;4.678;2022-08-19T01:00:12;17.77;;;10.10;;
24034;SDS011;12242;50.952;4.678;2022-08-19T01:02:42;20.52;;;10.50;;
24034;SDS011;12242;50.952;4.678;2022-08-19T01:05:11;20.13;;;11.35;;
24034;SDS011;12242;50.952;4.678;2022-08-19T01:07:47;17.08;;;9.90;;
24034;SDS011;12242;50.952;4.678;2022-08-19T01:10:19;21.17;;;11.43;;
24034;SDS011;12242;50.952;4.678;2022-08-19T01:12:51;23.92;;;12.60;;
24034;SDS011;12242;50.952;4.678;2022-08-19T01:15:24;25.13;;;12.82;;
24034;SDS011;12242;50.952;4.678;2022-08-19T01:17:54;28.20;;;14.27;;
24034;SDS011;12242;50.952;4.678;2022-08-19T01:20:23;26.23;;;13.55;;
24034;SDS011;12242;50.952;4.678;2022-08-19T01:22:58;25.80;;;14.80;;
24034;SDS011;12242;50.952;4.678;2022-08-19T01:25:36;29.98;;;15.82;;
24034;SDS011;12242;50.952;4.678;2022-08-19T01:28:21;30.65;;;15.23;;
24034;SDS011;12242;50.952;4.678;2022-08-19T01:31:06;31.17;;;16.88;;
24034;SDS011;12242;50.952;4.678;2022-08-19T01:33:54;34.58;;;16.42;;
24034;SDS011;12242;50.952;4.678;2022-08-19T01:36:30;32.85;;;17.05;;
24034;SDS011;12242;50.952;4.678;2022-08-19T01:39:05;34.03;;;18.30;;
24034;SDS011;12242;50.952;4.678;2022-08-19T01:41:34;34.42;;;17.58;;
24034;SDS011;12242;50.952;4.678;2022-08-19T01:44:02;33.58;;;17.33;;
24034;SDS011;12242;50.952;4.678;2022-08-19T01:46:45;38.93;;;18.00;;
24034;SDS011;12242;50.952;4.678;2022-08-19T01:49:17;36.45;;;18.70;;
24034;SDS011;12242;50.952;4.678;2022-08-19T01:51:46;32.55;;;16.42;;
24034;SDS011;12242;50.952;4.678;2022-08-19T01:54:16;31.48;;;16.38;;
24034;SDS011;12242;50.952;4.678;2022-08-19T01:56:55;32.25;;;17.15;;
24034;SDS011;12242;50.952;4.678;2022-08-19T01:59:29;31.25;;;17.10;;
24034;SDS011;12242;50.952;4.678;2022-08-19T02:01:58;35.97;;;16.45;;
24034;SDS011;12242;50.952;4.678;2022-08-19T02:04:25;31.05;;;16.40;;
24034;SDS011;12242;50.952;4.678;2022-08-19T02:06:55;34.10;;;17.20;;
24034;SDS011;12242;50.952;4.678;2022-08-19T02:09:23;30.40;;;16.48;;
24034;SDS011;12242;50.952;4.678;2022-08-19T02:11:53;34.00;;;17.08;;
24034;SDS011;12242;50.952;4.678;2022-08-19T02:14:21;34.55;;;16.67;;
24034;SDS011;12242;50.952;4.678;2022-08-19T02:16:48;34.17;;;17.40;;
24034;SDS011;12242;50.952;4.678;2022-08-19T02:19:18;33.78;;;17.73;;
24034;SDS011;12242;50.952;4.678;2022-08-19T02:21:45;35.97;;;19.40;;
24034;SDS011;12242;50.952;4.678;2022-08-19T02:24:13;34.67;;;17.80;;
24034;SDS011;12242;50.952;4.678;2022-08-19T02:26:41;33.30;;;16.98;;
24034;SDS011;12242;50.952;4.678;2022-08-19T02:29:08;36.03;;;17.85;;
24034;SDS011;12242;50.952;4.678;2022-08-19T02:31:38;32.45;;;17.63;;
24034;SDS011;12242;50.952;4.678;2022-08-19T02:34:05;31.67;;;16.27;;
24034;SDS011;12242;50.952;4.678;2022-08-19T02:36:33;35.67;;;17.85;;
24034;SDS011;12242;50.952;4.678;2022-08-19T02:39:01;35.13;;;17.63;;
24034;SDS011;12242;50.952;4.678;2022-08-19T02:41:32;33.50;;;18.30;;
24034;SDS011;12242;50.952;4.678;2022-08-19T02:44:02;32.33;;;16.90;;
24034;SDS011;12242;50.952;4.678;2022-08-19T02:46:50;39.85;;;18.63;;
24034;SDS011;12242;50.952;4.678;2022-08-19T02:49:18;34.63;;;17.83;;
24034;SDS011;12242;50.952;4.678;2022-08-19T02:51:46;33.60;;;17.23;;
24034;SDS011;12242;50.952;4.678;2022-08-19T02:54:16;34.17;;;18.15;;
24034;SDS011;12242;50.952;4.678;2022-08-19T02:56:43;38.60;;;17.60;;
24034;SDS011;12242;50.952;4.678;2022-08-19T02:59:11;40.95;;;18.27;;
24034;SDS011;12242;50.952;4.678;2022-08-19T03:01:41;33.67;;;18.02;;
24034;SDS011;12242;50.952;4.678;2022-08-19T03:04:10;31.67;;;16.33;;
24034;SDS011;12242;50.952;4.678;2022-08-19T03:06:42;34.42;;;17.25;;
24034;SDS011;12242;50.952;4.678;2022-08-19T03:09:11;36.90;;;18.58;;
24034;SDS011;12242;50.952;4.678;2022-08-19T03:11:42;40.25;;;18.13;;
24034;SDS011;12242;50.952;4.678;2022-08-19T03:14:09;33.63;;;16.70;;
24034;SDS011;12242;50.952;4.678;2022-08-19T03:16:56;36.78;;;16.63;;
24034;SDS011;12242;50.952;4.678;2022-08-19T03:19:26;32.17;;;17.20;;
24034;SDS011;12242;50.952;4.678;2022-08-19T03:21:54;36.22;;;18.10;;
24034;SDS011;12242;50.952;4.678;2022-08-19T03:24:22;40.15;;;18.10;;
24034;SDS011;12242;50.952;4.678;2022-08-19T03:26:51;34.58;;;18.02;;
24034;SDS011;12242;50.952;4.678;2022-08-19T03:29:26;35.80;;;17.00;;
24034;SDS011;12242;50.952;4.678;2022-08-19T03:32:02;31.80;;;16.35;;
24034;SDS011;12242;50.952;4.678;2022-08-19T03:34:54;35.97;;;17.92;;
24034;SDS011;12242;50.952;4.678;2022-08-19T03:37:22;35.95;;;17.13;;
24034;SDS011;12242;50.952;4.678;2022-08-19T03:39:49;34.08;;;17.30;;
24034;SDS011;12242;50.952;4.678;2022-08-19T03:42:17;37.90;;;17.05;;
24034;SDS011;12242;50.952;4.678;2022-08-19T03:45:04;36.78;;;18.02;;
24034;SDS011;12242;50.952;4.678;2022-08-19T03:50:05;32.85;;;16.63;;
24034;SDS011;12242;50.952;4.678;2022-08-19T03:52:32;32.42;;;17.15;;
24034;SDS011;12242;50.952;4.678;2022-08-19T03:55:00;40.22;;;18.30;;
24034;SDS011;12242;50.952;4.678;2022-08-19T03:57:28;39.00;;;17.67;;
24034;SDS011;12242;50.952;4.678;2022-08-19T03:59:58;32.40;;;16.60;;
24034;SDS011;12242;50.952;4.678;2022-08-19T04:02:40;33.30;;;17.63;;
24034;SDS011;12242;50.952;4.678;2022-08-19T04:05:27;37.80;;;17.35;;
24034;SDS011;12242;50.952;4.678;2022-08-19T04:07:55;37.05;;;17.10;;
24034;SDS011;12242;50.952;4.678;2022-08-19T04:10:26;31.50;;;16.92;;
24034;SDS011;12242;50.952;4.678;2022-08-19T04:12:54;38.83;;;16.92;;
24034;SDS011;12242;50.952;4.678;2022-08-19T04:15:21;35.13;;;17.23;;
24034;SDS011;12242;50.952;4.678;2022-08-19T04:17:49;33.53;;;16.67;;
24034;SDS011;12242;50.952;4.678;2022-08-19T04:20:21;30.03;;;15.93;;
24034;SDS011;12242;50.952;4.678;2022-08-19T04:22:49;35.63;;;16.45;;
24034;SDS011;12242;50.952;4.678;2022-08-19T04:25:16;31.45;;;15.45;;
24034;SDS011;12242;50.952;4.678;2022-08-19T04:27:43;34.10;;;15.63;;
24034;SDS011;12242;50.952;4.678;2022-08-19T04:30:13;32.47;;;15.75;;
24034;SDS011;12242;50.952;4.678;2022-08-19T04:32:41;32.72;;;17.05;;
24034;SDS011;12242;50.952;4.678;2022-08-19T04:35:10;33.30;;;16.27;;
24034;SDS011;12242;50.952;4.678;2022-08-19T04:37:44;29.73;;;15.00;;
24034;SDS011;12242;50.952;4.678;2022-08-19T04:40:14;36.40;;;15.93;;
24034;SDS011;12242;50.952;4.678;2022-08-19T04:43:00;29.27;;;15.10;;
24034;SDS011;12242;50.952;4.678;2022-08-19T04:45:27;28.75;;;14.10;;
24034;SDS011;12242;50.952;4.678;2022-08-19T04:48:05;24.42;;;13.23;;
24034;SDS011;12242;50.952;4.678;2022-08-19T04:50:53;25.25;;;12.82;;
24034;SDS011;12242;50.952;4.678;2022-08-19T04:56:05;24.20;;;12.52;;
24034;SDS011;12242;50.952;4.678;2022-08-19T04:58:41;25.45;;;13.32;;
24034;SDS011;12242;50.952;4.678;2022-08-19T05:01:12;25.92;;;11.82;;
24034;SDS011;12242;50.952;4.678;2022-08-19T05:03:44;24.37;;;11.97;;
24034;SDS011;12242;50.952;4.678;2022-08-19T05:06:12;24.27;;;12.38;;
24034;SDS011;12242;50.952;4.678;2022-08-19T05:08:42;27.73;;;12.52;;
24034;SDS011;12242;50.952;4.678;2022-08-19T05:11:11;24.15;;;11.82;;
24034;SDS011;12242;50.952;4.678;2022-08-19T05:13:43;21.30;;;10.73;;
24034;SDS011;12242;50.952;4.678;2022-08-19T05:16:11;22.17;;;11.68;;
24034;SDS011;12242;50.952;4.678;2022-08-19T05:18:39;22.30;;;11.23;;
24034;SDS011;12242;50.952;4.678;2022-08-19T05:21:26;19.25;;;9.60;;
24034;SDS011;12242;50.952;4.678;2022-08-19T05:24:13;21.20;;;9.52;;
24034;SDS011;12242;50.952;4.678;2022-08-19T05:26:42;20.08;;;9.40;;
24034;SDS011;12242;50.952;4.678;2022-08-19T05:29:15;19.70;;;10.35;;
24034;SDS011;12242;50.952;4.678;2022-08-19T05:31:48;19.95;;;9.57;;
24034;SDS011;12242;50.952;4.678;2022-08-19T05:34:16;18.90;;;9.32;;
24034;SDS011;12242;50.952;4.678;2022-08-19T05:36:48;19.92;;;9.38;;
24034;SDS011;12242;50.952;4.678;2022-08-19T05:39:18;19.60;;;9.27;;
24034;SDS011;12242;50.952;4.678;2022-08-19T05:41:50;21.65;;;9.57;;
24034;SDS011;12242;50.952;4.678;2022-08-19T05:44:27;19.15;;;8.90;;
24034;SDS011;12242;50.952;4.678;2022-08-19T05:46:58;20.45;;;9.90;;
24034;SDS011;12242;50.952;4.678;2022-08-19T05:49:27;19.20;;;8.88;;
24034;SDS011;12242;50.952;4.678;2022-08-19T05:51:55;22.90;;;9.23;;
24034;SDS011;12242;50.952;4.678;2022-08-19T05:54:23;20.92;;;8.90;;
24034;SDS011;12242;50.952;4.678;2022-08-19T05:56:52;21.35;;;9.18;;
24034;SDS011;12242;50.952;4.678;2022-08-19T05:59:20;20.50;;;8.95;;
24034;SDS011;12242;50.952;4.678;2022-08-19T06:01:51;17.40;;;9.15;;
24034;SDS011;12242;50.952;4.678;2022-08-19T06:04:23;17.27;;;8.88;;
24034;SDS011;12242;50.952;4.678;2022-08-19T06:06:58;21.67;;;8.82;;
24034;SDS011;12242;50.952;4.678;2022-08-19T06:09:38;23.80;;;9.30;;
24034;SDS011;12242;50.952;4.678;2022-08-19T06:12:09;17.67;;;8.93;;
24034;SDS011;12242;50.952;4.678;2022-08-19T06:14:37;18.10;;;9.18;;
24034;SDS011;12242;50.952;4.678;2022-08-19T06:17:08;19.20;;;8.68;;
24034;SDS011;12242;50.952;4.678;2022-08-19T06:19:35;16.83;;;8.00;;
24034;SDS011;12242;50.952;4.678;2022-08-19T06:22:07;18.38;;;8.68;;
24034;SDS011;12242;50.952;4.678;2022-08-19T06:24:34;16.92;;;7.90;;
24034;SDS011;12242;50.952;4.678;2022-08-19T06:27:02;15.85;;;7.78;;
24034;SDS011;12242;50.952;4.678;2022-08-19T06:29:34;16.52;;;7.55;;
24034;SDS011;12242;50.952;4.678;2022-08-19T06:32:02;16.98;;;8.20;;
24034;SDS011;12242;50.952;4.678;2022-08-19T06:34:32;18.23;;;7.78;;
24034;SDS011;12242;50.952;4.678;2022-08-19T06:37:04;17.55;;;8.27;;
24034;SDS011;12242;50.952;4.678;2022-08-19T06:39:38;18.67;;;7.95;;
24034;SDS011;12242;50.952;4.678;2022-08-19T06:42:07;18.08;;;7.32;;
24034;SDS011;12242;50.952;4.678;2022-08-19T06:44:39;16.80;;;7.10;;
24034;SDS011;12242;50.952;4.678;2022-08-19T06:47:20;14.02;;;7.43;;
24034;SDS011;12242;50.952;4.678;2022-08-19T06:49:55;14.32;;;6.85;;
24034;SDS011;12242;50.952;4.678;2022-08-19T06:52:29;17.58;;;7.47;;
24034;SDS011;12242;50.952;4.678;2022-08-19T06:55:00;15.38;;;7.22;;
24034;SDS011;12242;50.952;4.678;2022-08-19T06:57:32;15.15;;;7.20;;
24034;SDS011;12242;50.952;4.678;2022-08-19T07:00:05;12.63;;;6.45;;
24034;SDS011;12242;50.952;4.678;2022-08-19T07:02:42;16.75;;;6.75;;
24034;SDS011;12242;50.952;4.678;2022-08-19T07:05:21;13.50;;;6.18;;
24034;SDS011;12242;50.952;4.678;2022-08-19T07:07:49;15.52;;;6.60;;
24034;SDS011;12242;50.952;4.678;2022-08-19T07:10:18;16.10;;;7.05;;
24034;SDS011;12242;50.952;4.678;2022-08-19T07:12:51;11.77;;;6.38;;
24034;SDS011;12242;50.952;4.678;2022-08-19T07:15:18;14.82;;;6.45;;
24034;SDS011;12242;50.952;4.678;2022-08-19T07:17:47;13.30;;;6.15;;
24034;SDS011;12242;50.952;4.678;2022-08-19T07:20:18;12.35;;;5.60;;
24034;SDS011;12242;50.952;4.678;2022-08-19T07:22:46;13.38;;;6.25;;
24034;SDS011;12242;50.952;4.678;2022-08-19T07:25:14;15.65;;;5.60;;
24034;SDS011;12242;50.952;4.678;2022-08-19T07:27:43;14.25;;;5.20;;
24034;SDS011;12242;50.952;4.678;2022-08-19T07:30:20;10.45;;;4.80;;
24034;SDS011;12242;50.952;4.678;2022-08-19T07:32:51;10.68;;;4.57;;
24034;SDS011;12242;50.952;4.678;2022-08-19T07:35:21;10.60;;;4.97;;
24034;SDS011;12242;50.952;4.678;2022-08-19T07:37:55;10.02;;;4.13;;
24034;SDS011;12242;50.952;4.678;2022-08-19T07:40:24;10.48;;;3.78;;
24034;SDS011;12242;50.952;4.678;2022-08-19T07:42:55;7.88;;;3.45;;
24034;SDS011;12242;50.952;4.678;2022-08-19T07:45:24;9.40;;;3.70;;
24034;SDS011;12242;50.952;4.678;2022-08-19T07:47:55;8.02;;;3.33;;
24034;SDS011;12242;50.952;4.678;2022-08-19T07:50:23;6.90;;;3.33;;
24034;SDS011;12242;50.952;4.678;2022-08-19T07:52:50;7.18;;;3.20;;
24034;SDS011;12242;50.952;4.678;2022-08-19T07:55:20;7.38;;;3.35;;
24034;SDS011;12242;50.952;4.678;2022-08-19T07:58:10;5.60;;;2.78;;
24034;SDS011;12242;50.952;4.678;2022-08-19T08:00:40;7.35;;;3.17;;
24034;SDS011;12242;50.952;4.678;2022-08-19T08:03:09;7.30;;;3.58;;
24034;SDS011;12242;50.952;4.678;2022-08-19T08:05:37;7.55;;;3.15;;
24034;SDS011;12242;50.952;4.678;2022-08-19T08:08:23;6.88;;;3.05;;
24034;SDS011;12242;50.952;4.678;2022-08-19T08:11:11;8.02;;;3.22;;
24034;SDS011;12242;50.952;4.678;2022-08-19T08:13:41;8.15;;;3.28;;
24034;SDS011;12242;50.952;4.678;2022-08-19T08:16:08;7.65;;;3.03;;
24034;SDS011;12242;50.952;4.678;2022-08-19T08:18:40;7.10;;;2.95;;
24034;SDS011;12242;50.952;4.678;2022-08-19T08:21:16;6.28;;;3.38;;
24034;SDS011;12242;50.952;4.678;2022-08-19T08:23:43;4.93;;;2.67;;
24034;SDS011;12242;50.952;4.678;2022-08-19T08:26:16;4.88;;;2.80;;
24034;SDS011;12242;50.952;4.678;2022-08-19T08:28:45;7.20;;;2.78;;
24034;SDS011;12242;50.952;4.678;2022-08-19T08:31:15;7.60;;;2.70;;
24034;SDS011;12242;50.952;4.678;2022-08-19T08:33:42;6.70;;;2.60;;
24034;SDS011;12242;50.952;4.678;2022-08-19T08:36:12;6.15;;;2.95;;
24034;SDS011;12242;50.952;4.678;2022-08-19T08:38:41;6.07;;;2.70;;
24034;SDS011;12242;50.952;4.678;2022-08-19T08:41:17;8.88;;;3.58;;
24034;SDS011;12242;50.952;4.678;2022-08-19T08:44:02;7.28;;;2.85;;
24034;SDS011;12242;50.952;4.678;2022-08-19T08:46:39;6.32;;;2.75;;
24034;SDS011;12242;50.952;4.678;2022-08-19T08:51:52;5.78;;;2.90;;
24034;SDS011;12242;50.952;4.678;2022-08-19T08:54:32;7.28;;;3.42;;
24034;SDS011;12242;50.952;4.678;2022-08-19T08:57:24;5.20;;;2.88;;
24034;SDS011;12242;50.952;4.678;2022-08-19T09:00:05;8.07;;;3.20;;
24034;SDS011;12242;50.952;4.678;2022-08-19T09:02:48;7.82;;;2.80;;
24034;SDS011;12242;50.952;4.678;2022-08-19T09:05:17;5.38;;;2.72;;
24034;SDS011;12242;50.952;4.678;2022-08-19T09:11:15;5.18;;;2.47;;
24034;SDS011;12242;50.952;4.678;2022-08-19T09:16:31;5.22;;;2.10;;
24034;SDS011;12242;50.952;4.678;2022-08-19T09:19:03;4.63;;;2.05;;
24034;SDS011;12242;50.952;4.678;2022-08-19T09:21:32;5.10;;;2.13;;
24034;SDS011;12242;50.952;4.678;2022-08-19T09:24:07;7.97;;;2.45;;
24034;SDS011;12242;50.952;4.678;2022-08-19T09:26:35;6.65;;;2.35;;
24034;SDS011;12242;50.952;4.678;2022-08-19T09:29:18;7.88;;;3.55;;
24034;SDS011;12242;50.952;4.678;2022-08-19T09:31:49;6.65;;;3.15;;
24034;SDS011;12242;50.952;4.678;2022-08-19T09:34:17;4.93;;;2.72;;
24034;SDS011;12242;50.952;4.678;2022-08-19T09:36:48;13.52;;;3.35;;
24034;SDS011;12242;50.952;4.678;2022-08-19T09:39:21;5.93;;;2.53;;
24034;SDS011;12242;50.952;4.678;2022-08-19T09:41:51;7.57;;;2.72;;
24034;SDS011;12242;50.952;4.678;2022-08-19T09:44:19;7.88;;;2.60;;
24034;SDS011;12242;50.952;4.678;2022-08-19T09:46:47;8.25;;;2.47;;
24034;SDS011;12242;50.952;4.678;2022-08-19T09:49:15;7.88;;;2.85;;
24034;SDS011;12242;50.952;4.678;2022-08-19T09:51:44;5.15;;;2.60;;
24034;SDS011;12242;50.952;4.678;2022-08-19T09:54:17;6.30;;;2.72;;
24034;SDS011;12242;50.952;4.678;2022-08-19T09:56:53;6.40;;;2.33;;
24034;SDS011;12242;50.952;4.678;2022-08-19T09:59:21;10.35;;;3.38;;
24034;SDS011;12242;50.952;4.678;2022-08-19T10:01:51;10.10;;;2.67;;
24034;SDS011;12242;50.952;4.678;2022-08-19T10:04:20;6.15;;;2.88;;
24034;SDS011;12242;50.952;4.678;2022-08-19T10:07:10;6.68;;;2.55;;
24034;SDS011;12242;50.952;4.678;2022-08-19T10:09:38;6.72;;;2.75;;
24034;SDS011;12242;50.952;4.678;2022-08-19T10:12:08;20.55;;;4.00;;
24034;SDS011;12242;50.952;4.678;2022-08-19T10:14:43;20.13;;;4.63;;
24034;SDS011;12242;50.952;4.678;2022-08-19T10:17:11;7.88;;;3.20;;
24034;SDS011;12242;50.952;4.678;2022-08-19T10:19:46;8.73;;;3.33;;
24034;SDS011;12242;50.952;4.678;2022-08-19T10:22:23;6.53;;;3.05;;
24034;SDS011;12242;50.952;4.678;2022-08-19T10:24:52;9.95;;;3.50;;
24034;SDS011;12242;50.952;4.678;2022-08-19T10:27:20;5.90;;;2.83;;
24034;SDS011;12242;50.952;4.678;2022-08-19T10:29:52;8.05;;;3.30;;
24034;SDS011;12242;50.952;4.678;2022-08-19T10:32:20;6.32;;;3.08;;
24034;SDS011;12242;50.952;4.678;2022-08-19T10:35:00;5.72;;;2.53;;
24034;SDS011;12242;50.952;4.678;2022-08-19T10:37:36;7.78;;;3.10;;
24034;SDS011;12242;50.952;4.678;2022-08-19T10:40:22;7.72;;;3.40;;
24034;SDS011;12242;50.952;4.678;2022-08-19T10:42:53;11.10;;;3.08;;
24034;SDS011;12242;50.952;4.678;2022-08-19T10:45:22;7.38;;;3.08;;
24034;SDS011;12242;50.952;4.678;2022-08-19T10:47:53;6.50;;;3.05;;
24034;SDS011;12242;50.952;4.678;2022-08-19T10:50:24;7.25;;;3.08;;
24034;SDS011;12242;50.952;4.678;2022-08-19T10:53:10;5.75;;;2.63;;
24034;SDS011;12242;50.952;4.678;2022-08-19T10:55:37;6.00;;;2.45;;
24034;SDS011;12242;50.952;4.678;2022-08-19T10:58:23;5.75;;;2.75;;
24034;SDS011;12242;50.952;4.678;2022-08-19T11:00:57;7.78;;;3.20;;
24034;SDS011;12242;50.952;4.678;2022-08-19T11:03:28;5.93;;;2.47;;
24034;SDS011;12242;50.952;4.678;2022-08-19T11:06:00;6.65;;;2.47;;
24034;SDS011;12242;50.952;4.678;2022-08-19T11:08:32;5.90;;;2.42;;
24034;SDS011;12242;50.952;4.678;2022-08-19T11:11:01;7.63;;;2.63;;
24034;SDS011;12242;50.952;4.678;2022-08-19T11:13:33;6.47;;;2.63;;
24034;SDS011;12242;50.952;4.678;2022-08-19T11:16:07;6.70;;;2.90;;
24034;SDS011;12242;50.952;4.678;2022-08-19T11:18:44;5.07;;;2.28;;
24034;SDS011;12242;50.952;4.678;2022-08-19T11:21:15;5.40;;;2.42;;
24034;SDS011;12242;50.952;4.678;2022-08-19T11:23:55;8.27;;;2.42;;
24034;SDS011;12242;50.952;4.678;2022-08-19T11:26:25;11.57;;;2.90;;
24034;SDS011;12242;50.952;4.678;2022-08-19T11:28:55;4.43;;;2.00;;
24034;SDS011;12242;50.952;4.678;2022-08-19T11:31:25;4.28;;;2.10;;
24034;SDS011;12242;50.952;4.678;2022-08-19T11:33:58;5.50;;;2.10;;
24034;SDS011;12242;50.952;4.678;2022-08-19T11:36:28;4.55;;;1.80;;
24034;SDS011;12242;50.952;4.678;2022-08-19T11:38:59;4.40;;;1.92;;
24034;SDS011;12242;50.952;4.678;2022-08-19T11:41:27;4.75;;;1.85;;
24034;SDS011;12242;50.952;4.678;2022-08-19T11:43:54;6.72;;;2.20;;
24034;SDS011;12242;50.952;4.678;2022-08-19T11:46:23;7.38;;;2.03;;
24034;SDS011;12242;50.952;4.678;2022-08-19T11:48:52;3.42;;;1.95;;
24034;SDS011;12242;50.952;4.678;2022-08-19T11:51:20;5.00;;;1.73;;
24034;SDS011;12242;50.952;4.678;2022-08-19T11:53:51;5.93;;;2.08;;
24034;SDS011;12242;50.952;4.678;2022-08-19T11:56:20;6.93;;;2.60;;
24034;SDS011;12242;50.952;4.678;2022-08-19T11:58:49;5.22;;;2.50;;
24034;SDS011;12242;50.952;4.678;2022-08-19T12:01:17;4.45;;;2.38;;
24034;SDS011;12242;50.952;4.678;2022-08-19T12:03:47;5.75;;;2.53;;
24034;SDS011;12242;50.952;4.678;2022-08-19T12:06:22;7.13;;;2.60;;
24034;SDS011;12242;50.952;4.678;2022-08-19T12:08:58;6.28;;;2.40;;
24034;SDS011;12242;50.952;4.678;2022-08-19T12:11:27;4.00;;;2.00;;
24034;SDS011;12242;50.952;4.678;2022-08-19T12:14:00;9.07;;;2.90;;
24034;SDS011;12242;50.952;4.678;2022-08-19T12:16:28;39.38;;;5.90;;
24034;SDS011;12242;50.952;4.678;2022-08-19T12:18:58;8.90;;;2.20;;
24034;SDS011;12242;50.952;4.678;2022-08-19T12:21:31;4.32;;;2.25;;
24034;SDS011;12242;50.952;4.678;2022-08-19T12:24:05;4.03;;;1.85;;
24034;SDS011;12242;50.952;4.678;2022-08-19T12:26:36;4.43;;;1.88;;
24034;SDS011;12242;50.952;4.678;2022-08-19T12:29:20;5.00;;;1.95;;
24034;SDS011;12242;50.952;4.678;2022-08-19T12:31:58;5.35;;;2.20;;
24034;SDS011;12242;50.952;4.678;2022-08-19T12:34:29;5.13;;;2.22;;
24034;SDS011;12242;50.952;4.678;2022-08-19T12:37:00;4.25;;;1.95;;
24034;SDS011;12242;50.952;4.678;2022-08-19T12:39:29;4.07;;;1.50;;
24034;SDS011;12242;50.952;4.678;2022-08-19T12:42:00;4.10;;;1.77;;
24034;SDS011;12242;50.952;4.678;2022-08-19T12:44:28;4.78;;;2.15;;
24034;SDS011;12242;50.952;4.678;2022-08-19T12:46:59;5.47;;;1.75;;
24034;SDS011;12242;50.952;4.678;2022-08-19T12:49:29;5.97;;;3.22;;
24034;SDS011;12242;50.952;4.678;2022-08-19T12:52:20;6.43;;;2.80;;
24034;SDS011;12242;50.952;4.678;2022-08-19T12:54:52;5.85;;;3.00;;
24034;SDS011;12242;50.952;4.678;2022-08-19T12:57:22;7.40;;;3.03;;
24034;SDS011;12242;50.952;4.678;2022-08-19T13:00:20;7.00;;;3.55;;
24034;SDS011;12242;50.952;4.678;2022-08-19T13:02:51;6.65;;;3.05;;
24034;SDS011;12242;50.952;4.678;2022-08-19T13:05:19;5.68;;;3.13;;
24034;SDS011;12242;50.952;4.678;2022-08-19T13:07:50;7.43;;;3.15;;
24034;SDS011;12242;50.952;4.678;2022-08-19T13:10:19;5.18;;;2.70;;
24034;SDS011;12242;50.952;4.678;2022-08-19T13:12:48;6.50;;;2.85;;
24034;SDS011;12242;50.952;4.678;2022-08-19T13:15:18;5.68;;;2.85;;
24034;SDS011;12242;50.952;4.678;2022-08-19T13:17:50;5.82;;;2.60;;
24034;SDS011;12242;50.952;4.678;2022-08-19T13:20:19;8.82;;;3.63;;
24034;SDS011;12242;50.952;4.678;2022-08-19T13:22:47;7.07;;;3.40;;
24034;SDS011;12242;50.952;4.678;2022-08-19T13:25:18;6.72;;;2.70;;
24034;SDS011;12242;50.952;4.678;2022-08-19T13:27:47;5.47;;;3.03;;
24034;SDS011;12242;50.952;4.678;2022-08-19T13:30:17;7.40;;;3.20;;
24034;SDS011;12242;50.952;4.678;2022-08-19T13:33:04;6.57;;;2.83;;
24034;SDS011;12242;50.952;4.678;2022-08-19T13:35:38;7.32;;;2.63;;
24034;SDS011;12242;50.952;4.678;2022-08-19T13:38:23;4.78;;;2.55;;
24034;SDS011;12242;50.952;4.678;2022-08-19T13:40:54;7.95;;;2.45;;
24034;SDS011;12242;50.952;4.678;2022-08-19T13:43:26;9.95;;;2.78;;
24034;SDS011;12242;50.952;4.678;2022-08-19T13:45:58;8.52;;;2.67;;
24034;SDS011;12242;50.952;4.678;2022-08-19T13:48:34;5.82;;;2.28;;
24034;SDS011;12242;50.952;4.678;2022-08-19T13:51:04;3.70;;;2.05;;
24034;SDS011;12242;50.952;4.678;2022-08-19T13:53:32;6.43;;;2.70;;
24034;SDS011;12242;50.952;4.678;2022-08-19T13:56:07;4.93;;;2.15;;
24034;SDS011;12242;50.952;4.678;2022-08-19T13:58:37;4.55;;;2.15;;
24034;SDS011;12242;50.952;4.678;2022-08-19T14:01:07;4.43;;;1.90;;
24034;SDS011;12242;50.952;4.678;2022-08-19T14:03:38;3.38;;;1.85;;
24034;SDS011;12242;50.952;4.678;2022-08-19T14:06:07;4.93;;;1.70;;
24034;SDS011;12242;50.952;4.678;2022-08-19T14:08:39;3.95;;;1.90;;
24034;SDS011;12242;50.952;4.678;2022-08-19T14:11:12;7.00;;;1.45;;
24034;SDS011;12242;50.952;4.678;2022-08-19T14:13:40;4.68;;;1.55;;
24034;SDS011;12242;50.952;4.678;2022-08-19T14:16:08;3.00;;;1.23;;
24034;SDS011;12242;50.952;4.678;2022-08-19T14:18:37;3.15;;;1.20;;
24034;SDS011;12242;50.952;4.678;2022-08-19T14:21:07;2.58;;;1.30;;
24034;SDS011;12242;50.952;4.678;2022-08-19T14:23:46;5.22;;;1.27;;
24034;SDS011;12242;50.952;4.678;2022-08-19T14:26:15;4.78;;;1.30;;
24034;SDS011;12242;50.952;4.678;2022-08-19T14:28:43;5.78;;;1.40;;
24034;SDS011;12242;50.952;4.678;2022-08-19T14:31:12;3.30;;;1.45;;
24034;SDS011;12242;50.952;4.678;2022-08-19T14:33:43;3.08;;;1.15;;
24034;SDS011;12242;50.952;4.678;2022-08-19T14:36:13;7.25;;;1.10;;
24034;SDS011;12242;50.952;4.678;2022-08-19T14:38:43;2.95;;;1.30;;
24034;SDS011;12242;50.952;4.678;2022-08-19T14:41:13;2.13;;;1.00;;
24034;SDS011;12242;50.952;4.678;2022-08-19T14:43:46;1.23;;;0.85;;
24034;SDS011;12242;50.952;4.678;2022-08-19T14:46:18;2.33;;;1.10;;
24034;SDS011;12242;50.952;4.678;2022-08-19T14:48:48;1.17;;;0.70;;
24034;SDS011;12242;50.952;4.678;2022-08-19T14:51:20;6.28;;;1.15;;
24034;SDS011;12242;50.952;4.678;2022-08-19T14:53:49;3.25;;;1.13;;
24034;SDS011;12242;50.952;4.678;2022-08-19T14:56:22;2.63;;;1.38;;
24034;SDS011;12242;50.952;4.678;2022-08-19T14:58:54;3.33;;;1.20;;
24034;SDS011;12242;50.952;4.678;2022-08-19T15:01:22;3.03;;;0.93;;
24034;SDS011;12242;50.952;4.678;2022-08-19T15:03:50;0.80;;;0.60;;
24034;SDS011;12242;50.952;4.678;2022-08-19T15:06:19;2.15;;;0.80;;
24034;SDS011;12242;50.952;4.678;2022-08-19T15:08:48;4.43;;;1.00;;
24034;SDS011;12242;50.952;4.678;2022-08-19T15:11:18;2.92;;;1.00;;
24034;SDS011;12242;50.952;4.678;2022-08-19T15:13:48;4.32;;;1.00;;
24034;SDS011;12242;50.952;4.678;2022-08-19T15:16:19;3.05;;;1.05;;
24034;SDS011;12242;50.952;4.678;2022-08-19T15:18:54;3.55;;;0.98;;
24034;SDS011;12242;50.952;4.678;2022-08-19T15:21:23;3.40;;;1.00;;